Time;durP1;ratioP1;P1;durP2;ratioP2;P2;SDS_P1;SDS_P2;PMS_P1;PMS_P2;Temp;Humidity;BMP_temperature;BMP_pressure;BME280_temperature;BME280_humidity;BME280_pressure;Samples;Min_cycle;Max_cycle;Signal;HPM_P1;HPM_P2
2024/02/13 00:00:51;;;;;;;;;;;;;;;9.94;62.43;93623.63;4218654;28;20330;-69
2024/02/13 00:02:53;;;;;;;15.00;5.97;;;;;;;9.84;63.05;93621.25;4230200;27;19935;-70
2024/02/13 00:04:55;;;;;;;9.52;4.85;;;;;;;9.88;62.96;93623.53;4241843;27;20059;-69
2024/02/13 00:06:57;;;;;;;14.30;5.78;;;;;;;9.93;62.59;93629.03;4240047;27;20075;-70
2024/02/13 00:08:59;;;;;;;11.50;4.70;;;;;;;9.81;62.34;93623.44;4239835;27;20140;-71
2024/02/13 00:11:06;;;;;;;10.75;4.53;;;;;;;9.70;64.19;93629.09;4241925;27;20685;-71
2024/02/13 00:13:08;;;;;;;9.48;5.07;;;;;;;9.63;64.03;93629.00;4212875;27;20425;-68
2024/02/13 00:15:14;;;;;;;8.90;4.72;;;;;;;9.49;64.46;93632.44;4233541;27;20043;-70
2024/02/13 00:17:16;;;;;;;9.38;4.78;;;;;;;9.29;65.23;93632.94;4241517;27;20107;-67
2024/02/13 00:19:18;;;;;;;11.13;4.60;;;;;;;8.97;67.05;93634.00;4240729;27;20465;-70
2024/02/13 00:21:20;;;;;;;8.23;4.28;;;;;;;8.69;67.74;93650.22;4244137;27;20085;-69
2024/02/13 00:23:22;;;;;;;9.70;4.38;;;;;;;8.61;68.76;93639.81;4238598;27;20139;-68
2024/02/13 00:25:25;;;;;;;9.02;4.20;;;;;;;8.57;68.78;93638.53;4244493;27;20077;-68
2024/02/13 00:27:32;;;;;;;6.30;3.83;;;;;;;8.39;69.50;93646.63;4240051;27;20581;-69
2024/02/13 00:29:35;;;;;;;9.25;4.00;;;;;;;8.29;70.09;93648.63;4232302;27;20183;-70
2024/02/13 00:31:38;;;;;;;7.60;4.40;;;;;;;8.08;70.71;93646.59;4244417;27;20480;-68
2024/02/13 00:33:40;;;;;;;9.75;4.07;;;;;;;7.99;71.13;93645.81;4240074;27;20126;-68
2024/02/13 00:35:42;;;;;;;18.80;4.70;;;;;;;7.79;71.18;93642.78;4239871;27;20054;-69
2024/02/13 00:37:46;;;;;;;6.68;3.60;;;;;;;7.75;72.61;93651.94;4237335;27;20103;-69
2024/02/13 00:39:48;;;;;;;5.95;3.95;;;;;;;7.89;71.91;93640.78;4232442;27;20073;-69
2024/02/13 00:41:51;;;;;;;9.45;4.60;;;;;;;8.17;71.31;93640.34;4242625;27;20404;-68
2024/02/13 00:43:53;;;;;;;9.40;3.95;;;;;;;8.11;70.75;93647.06;4239962;27;20047;-69
2024/02/13 00:45:57;;;;;;;9.45;5.00;;;;;;;8.14;71.00;93646.72;4241417;27;20119;-67
2024/02/13 00:47:59;;;;;;;9.45;4.72;;;;;;;8.28;70.66;93640.00;4241649;27;20042;-68
2024/02/13 00:50:03;;;;;;;6.88;4.32;;;;;;;8.11;71.32;93649.69;4243569;27;20176;-70
2024/02/13 00:52:07;;;;;;;;;;;;;;;7.98;71.96;93649.41;4238146;27;20051;-69
2024/02/13 00:54:13;;;;;;;9.20;4.40;;;;;;;8.01;72.70;93638.63;4243765;27;20480;-69
2024/02/13 00:56:15;;;;;;;8.18;4.45;;;;;;;8.15;72.00;93639.69;4235142;27;20043;-66
2024/02/13 00:58:17;;;;;;;10.02;4.57;;;;;;;8.28;71.12;93629.56;4237591;27;20050;-71
2024/02/13 01:00:19;;;;;;;10.30;4.63;;;;;;;8.37;71.12;93640.75;4234187;27;20127;-68
2024/02/13 01:02:22;;;;;;;11.02;4.55;;;;;;;8.35;71.22;93647.94;4243514;27;20051;-69
2024/02/13 01:04:24;;;;;;;7.78;4.10;;;;;;;8.49;70.74;93641.19;4226022;28;20210;-71
2024/02/13 01:06:27;;;;;;;11.88;4.18;;;;;;;8.57;70.03;93638.53;4244325;27;20055;-70
2024/02/13 01:08:29;;;;;;;10.15;4.43;;;;;;;8.55;69.71;93640.50;4241008;27;20084;-69
2024/02/13 01:10:31;;;;;;;8.38;4.68;;;;;;;8.61;69.98;93642.44;4236841;27;20044;-69
2024/02/13 01:12:33;;;;;;;8.93;4.68;;;;;;;8.52;70.07;93641.66;4237887;27;20047;-70
2024/02/13 01:14:37;;;;;;;10.38;4.55;;;;;;;8.58;70.33;93634.94;4234096;27;20120;-69
2024/02/13 01:16:40;;;;;;;8.95;4.82;;;;;;;8.51;71.38;93634.81;4241955;27;20039;-69
2024/02/13 01:18:42;;;;;;;10.38;4.65;;;;;;;8.56;70.92;93642.13;4243783;27;20043;-69
2024/02/13 01:20:44;;;;;;;11.23;4.90;;;;;;;8.55;71.31;93636.09;4243780;27;20047;-69
2024/02/13 01:22:46;;;;;;;9.43;4.47;;;;;;;8.59;71.03;93644.41;4244353;27;20425;-69
2024/02/13 01:24:48;;;;;;;7.38;5.00;;;;;;;8.62;70.54;93644.03;4242380;27;20499;-67
2024/02/13 01:26:50;;;;;;;9.25;4.93;;;;;;;8.60;70.77;93639.03;4237130;27;20594;-69
2024/02/13 01:28:52;;;;;;;7.85;4.22;;;;;;;8.53;70.52;93647.69;4235545;27;20043;-71
2024/02/13 01:31:13;;;;;;;7.32;3.70;;;;;;;8.48;70.58;93645.59;4243142;27;20070;-69
2024/02/13 01:33:14;;;;;;;5.18;3.97;;;;;;;8.54;70.30;93644.94;4230811;27;20051;-69
2024/02/13 01:35:18;;;;;;;6.57;3.65;;;;;;;8.65;70.74;93642.88;4233310;27;20047;-68
2024/02/13 01:37:20;;;;;;;5.22;4.30;;;;;;;8.40;71.00;93662.13;4240763;27;20399;-68
2024/02/13 01:39:24;;;;;;;6.72;4.07;;;;;;;8.58;70.56;93650.59;4233510;27;20123;-69
2024/02/13 01:41:26;;;;;;;6.10;4.13;;;;;;;8.68;69.79;93659.03;4232918;27;20043;-67
2024/02/13 01:43:29;;;;;;;6.40;4.03;;;;;;;8.74;70.44;93660.13;4240724;27;20055;-69
2024/02/13 01:45:31;;;;;;;7.25;4.03;;;;;;;8.78;69.45;93657.00;4238583;27;20074;-67
2024/02/13 01:47:36;;;;;;;6.80;4.10;;;;;;;8.80;69.34;93657.66;4232371;27;20905;-69
2024/02/13 01:49:38;;;;;;;6.25;4.07;;;;;;;8.62;69.99;93662.31;4243545;27;20055;-69
2024/02/13 01:51:40;;;;;;;5.88;4.10;;;;;;;8.54;70.34;93655.38;4215607;28;20092;-70
2024/02/13 01:53:43;;;;;;;7.97;4.43;;;;;;;8.58;70.45;93661.03;4221135;28;20463;-68
2024/02/13 01:55:45;;;;;;;5.40;4.13;;;;;;;8.55;70.39;93659.59;4239581;27;20043;-70
2024/02/13 01:57:48;;;;;;;6.40;4.00;;;;;;;8.65;69.88;93661.16;4231740;27;20418;-69
2024/02/13 01:59:50;;;;;;;4.13;3.67;;;;;;;8.62;70.38;93667.53;4232411;27;20123;-69
2024/02/13 02:01:54;;;;;;;5.82;4.32;;;;;;;8.55;70.06;93670.03;4243235;27;20045;-70
2024/02/13 02:03:59;;;;;;;6.77;4.33;;;;;;;8.59;70.14;93673.94;4215361;28;20083;-70
2024/02/13 02:06:05;;;;;;;5.55;4.00;;;;;;;8.63;70.63;93676.22;4242174;27;20114;-68
2024/02/13 02:08:13;;;;;;;4.75;3.70;;;;;;;8.55;69.78;93680.47;4242003;27;20104;-69
2024/02/13 02:10:16;;;;;;;5.95;4.47;;;;;;;8.61;69.62;93677.19;4242842;27;20154;-70
2024/02/13 02:12:17;;;;;;;5.32;4.43;;;;;;;8.57;69.56;93675.91;4242988;27;20185;-69
2024/02/13 02:14:22;;;;;;;4.32;3.75;;;;;;;8.65;70.04;93669.00;4222526;28;20129;-69
2024/02/13 02:16:24;;;;;;;4.85;4.40;;;;;;;8.71;69.66;93681.34;4236623;27;20465;-69
2024/02/13 02:18:26;;;;;;;6.22;4.18;;;;;;;8.60;69.72;93680.78;4241517;27;20086;-70
2024/02/13 02:20:28;;;;;;;4.55;3.67;;;;;;;8.43;70.54;93687.06;4242859;27;20674;-69
2024/02/13 02:22:30;;;;;;;4.95;4.43;;;;;;;8.48;70.80;93684.75;4243250;27;20079;-68
2024/02/13 02:24:34;;;;;;;5.88;4.22;;;;;;;8.47;70.37;93690.16;4240930;27;20140;-69
2024/02/13 02:26:36;;;;;;;;;;;;;;;8.52;70.76;93688.66;4237421;27;20130;-67
2024/02/13 02:28:38;;;;;;;4.45;4.05;;;;;;;8.51;70.31;93697.47;4224834;28;20001;-70
2024/02/13 02:30:42;;;;;;;5.38;4.20;;;;;;;8.55;70.65;93685.69;4232174;27;20055;-69
2024/02/13 02:32:44;;;;;;;4.60;3.58;;;;;;;8.58;70.40;93692.38;4242506;27;20053;-68
2024/02/13 02:34:45;;;;;;;5.53;4.35;;;;;;;8.52;70.84;93690.47;4243170;28;20463;-68
2024/02/13 02:36:50;;;;;;;4.82;3.92;;;;;;;8.57;71.25;93693.34;4241435;28;20054;-68
2024/02/13 02:38:53;;;;;;;4.40;3.80;;;;;;;8.56;70.98;93694.31;4235266;28;20048;-68
2024/02/13 02:40:55;;;;;;;6.63;4.13;;;;;;;8.57;70.30;93698.59;4224181;28;20047;-68
2024/02/13 02:42:59;;;;;;;3.92;3.42;;;;;;;8.44;70.14;93706.97;4218260;28;20064;-67
2024/02/13 02:45:01;;;;;;;4.53;3.55;;;;;;;8.41;70.60;93712.53;4234436;27;20055;-68
2024/02/13 02:47:05;;;;;;;4.72;3.53;;;;;;;8.30;71.25;93695.44;4233423;27;20130;-69
2024/02/13 02:49:07;;;;;;;3.65;3.05;;;;;;;8.30;70.84;93705.03;4239899;27;20055;-69
2024/02/13 02:51:09;;;;;;;4.28;2.92;;;;;;;8.27;71.62;93718.44;4227019;28;20086;-69
2024/02/13 02:53:11;;;;;;;3.72;3.08;;;;;;;8.28;71.44;93714.81;4235006;27;20914;-69
2024/02/13 02:55:13;;;;;;;3.03;2.72;;;;;;;8.21;71.33;93723.31;4236848;27;20114;-69
2024/02/13 02:57:15;;;;;;;3.30;2.80;;;;;;;8.34;71.79;93727.19;4236358;27;20476;-68
2024/02/13 02:59:16;;;;;;;3.70;3.30;;;;;;;8.21;71.56;93728.53;4244766;27;20047;-69
2024/02/13 03:01:18;;;;;;;3.72;3.10;;;;;;;8.21;72.22;93725.13;4245719;27;20479;-69
2024/02/13 03:03:21;;;;;;;3.72;3.15;;;;;;;8.28;71.48;93727.88;4244540;27;20051;-67
2024/02/13 03:05:26;;;;;;;3.97;3.33;;;;;;;8.36;71.08;93726.03;4239144;27;20083;-69
2024/02/13 03:07:36;;;;;;;3.20;2.83;;;;;;;8.32;69.81;93729.97;4233863;27;20054;-68
2024/02/13 03:09:38;;;;;;;3.38;2.63;;;;;;;8.18;70.63;93736.72;4231609;27;20047;-67
2024/02/13 03:11:41;;;;;;;3.75;2.38;;;;;;;8.09;69.99;93742.94;4236304;27;20437;-69
2024/02/13 03:13:43;;;;;;;3.75;2.50;;;;;;;8.08;69.66;93746.50;4246252;27;20053;-69
2024/02/13 03:15:46;;;;;;;2.70;2.40;;;;;;;8.04;69.61;93742.59;4225942;28;20538;-67
2024/02/13 03:17:48;;;;;;;3.70;2.70;;;;;;;8.04;69.19;93734.78;4244250;27;20051;-69
2024/02/13 03:19:50;;;;;;;3.75;2.80;;;;;;;8.16;68.92;93737.88;4243795;27;20051;-69
2024/02/13 03:21:52;;;;;;;3.17;2.53;;;;;;;8.15;68.48;93739.66;4245040;27;20049;-66
2024/02/13 03:23:54;;;;;;;2.80;2.38;;;;;;;8.21;68.79;93743.38;4240827;27;20119;-69
2024/02/13 03:25:56;;;;;;;3.13;2.30;;;;;;;8.29;67.68;93735.53;4226775;28;20073;-68
2024/02/13 03:27:58;;;;;;;3.33;2.45;;;;;;;8.37;67.76;93737.31;4244451;27;20090;-69
2024/02/13 03:30:00;;;;;;;2.60;2.30;;;;;;;8.29;66.91;93748.56;4245068;27;20571;-68
2024/02/13 03:32:02;;;;;;;3.20;2.70;;;;;;;8.29;67.16;93738.13;4240012;27;20074;-69
2024/02/13 03:34:04;;;;;;;3.10;2.63;;;;;;;8.21;66.12;93744.19;4226299;28;20466;-70
2024/02/13 03:36:06;;;;;;;4.35;2.92;;;;;;;7.81;67.55;93745.13;4238387;27;20075;-68
2024/02/13 03:38:08;;;;;;;2.90;2.55;;;;;;;7.85;67.29;93740.38;4221438;28;20510;-67
2024/02/13 03:40:10;;;;;;;3.50;2.70;;;;;;;7.87;67.77;93746.25;4243063;27;20126;-68
2024/02/13 03:42:12;;;;;;;3.40;2.92;;;;;;;7.85;67.31;93756.84;4227472;28;20407;-69
2024/02/13 03:44:14;;;;;;;4.20;2.70;;;;;;;7.74;67.41;93760.63;4210145;28;20476;-68
2024/02/13 03:46:16;;;;;;;3.20;2.90;;;;;;;7.83;67.20;93750.16;4241241;27;20376;-69
2024/02/13 03:48:18;;;;;;;3.78;3.38;;;;;;;7.88;66.53;93753.91;4235870;27;20468;-69
2024/02/13 03:50:22;;;;;;;3.80;3.20;;;;;;;7.66;67.46;93754.56;4245169;27;20467;-69
2024/02/13 03:52:25;;;;;;;3.65;3.22;;;;;;;7.66;67.53;93755.41;4217069;28;20047;-68
2024/02/13 03:54:26;;;;;;;3.22;2.92;;;;;;;7.70;67.72;93755.88;4235532;27;20546;-69
2024/02/13 03:56:28;;;;;;;3.33;3.03;;;;;;;7.73;67.50;93761.56;4240398;27;20501;-69
2024/02/13 03:58:30;;;;;;;3.08;2.70;;;;;;;7.82;67.35;93764.19;4240590;27;20145;-70
2024/02/13 04:00:35;;;;;;;3.30;2.92;;;;;;;7.79;67.31;93760.13;4238026;27;20076;-69
2024/02/13 04:02:38;;;;;;;3.67;3.17;;;;;;;7.90;67.36;93772.00;4211969;28;20091;-68
2024/02/13 04:04:40;;;;;;;;;;;;;;;7.90;66.74;93772.00;4242572;27;20414;-68
2024/02/13 04:06:42;;;;;;;3.20;2.90;;;;;;;8.02;66.81;93775.06;4234247;27;19926;-67
2024/02/13 04:08:44;;;;;;;5.07;3.38;;;;;;;8.03;66.23;93771.50;4244469;27;20058;-68
2024/02/13 04:10:47;;;;;;;3.00;2.70;;;;;;;8.05;66.49;93779.97;4236582;27;20051;-68
2024/02/13 04:12:49;;;;;;;3.13;2.60;;;;;;;8.04;66.27;93773.09;4242670;27;20418;-69
2024/02/13 04:14:51;;;;;;;3.85;3.13;;;;;;;8.08;66.46;93775.22;4243826;27;20423;-68
2024/02/13 04:16:53;;;;;;;3.00;2.70;;;;;;;8.12;65.84;93775.69;4244879;27;20095;-69
2024/02/13 04:18:56;;;;;;;3.27;2.70;;;;;;;8.09;66.31;93776.03;4244483;27;20055;-66
2024/02/13 04:20:58;;;;;;;3.30;3.00;;;;;;;7.96;65.84;93784.38;4244469;27;20059;-69
2024/02/13 04:23:01;;;;;;;3.00;2.60;;;;;;;7.99;66.38;93781.44;4244731;27;20613;-68
2024/02/13 04:25:05;;;;;;;3.47;3.05;;;;;;;8.02;65.77;93781.09;4241015;27;20074;-69
2024/02/13 04:27:07;;;;;;;3.88;3.00;;;;;;;8.05;65.63;93783.38;4245065;27;20047;-69
2024/02/13 04:29:09;;;;;;;3.30;2.80;;;;;;;8.05;65.54;93783.38;4234708;27;20047;-71
2024/02/13 04:31:12;;;;;;;3.78;2.95;;;;;;;8.08;65.74;93784.84;4244671;27;20147;-68
2024/02/13 04:33:14;;;;;;;3.28;2.90;;;;;;;8.04;65.75;93784.34;4239922;27;20051;-70
2024/02/13 04:35:16;;;;;;;3.70;3.13;;;;;;;8.08;65.42;93777.81;4211142;28;20124;-70
2024/02/13 04:37:18;;;;;;;3.55;2.50;;;;;;;8.14;65.67;93784.97;4232872;27;20059;-67
2024/02/13 04:39:20;;;;;;;2.90;2.30;;;;;;;8.19;64.74;93787.94;4232632;27;20052;-68
2024/02/13 04:41:23;;;;;;;2.85;2.55;;;;;;;8.28;64.52;93780.88;4231612;27;20558;-68
2024/02/13 04:43:25;;;;;;;2.78;2.00;;;;;;;8.22;64.24;93786.78;4243548;27;20453;-68
2024/02/13 04:45:27;;;;;;;3.35;2.40;;;;;;;8.27;64.47;93786.25;4241310;27;20103;-69
2024/02/13 04:47:30;;;;;;;2.53;1.98;;;;;;;8.14;64.00;93794.59;4240372;27;20048;-69
2024/02/13 04:49:32;;;;;;;2.53;2.10;;;;;;;8.12;63.51;93797.38;4215193;28;20086;-68
2024/02/13 04:51:34;;;;;;;3.85;1.98;;;;;;;8.13;63.85;93791.19;4225953;28;20051;-68
2024/02/13 04:53:37;;;;;;;3.22;2.40;;;;;;;8.16;64.70;93800.47;4224794;28;20052;-70
2024/02/13 04:55:39;;;;;;;2.70;2.10;;;;;;;8.21;63.87;93798.97;4234293;27;20063;-68
2024/02/13 04:57:41;;;;;;;4.65;2.15;;;;;;;8.27;63.67;93799.31;4207997;28;20071;-71
2024/02/13 04:59:49;;;;;;;3.78;2.05;;;;;;;8.25;63.39;93799.47;4235500;27;20069;-68
2024/02/13 05:01:52;;;;;;;2.83;2.00;;;;;;;8.29;63.82;93792.13;4235607;27;20048;-70
2024/02/13 05:08:17;;;;;;;3.33;2.42;;;;;;;8.35;63.06;93792.28;4240532;27;20036;-70
2024/02/13 05:10:18;;;;;;;3.63;2.10;;;;;;;8.31;62.56;93800.59;4234084;27;20054;-71
2024/02/13 05:12:21;;;;;;;4.32;2.20;;;;;;;8.25;62.91;93807.28;4243283;27;20066;-68
2024/02/13 05:14:23;;;;;;;2.60;2.13;;;;;;;8.28;62.70;93806.97;4239002;27;20078;-70
2024/02/13 05:16:26;;;;;;;2.38;1.75;;;;;;;8.19;62.25;93814.00;4236495;27;20051;-70
2024/02/13 05:18:28;;;;;;;3.88;1.70;;;;;;;8.26;62.82;93819.38;4216677;27;20146;-68
2024/02/13 05:20:30;;;;;;;3.78;1.67;;;;;;;8.11;62.66;93828.84;4232153;27;20126;-70
2024/02/13 05:22:32;;;;;;;3.15;1.50;;;;;;;8.09;62.54;93823.81;4237841;27;20131;-68
2024/02/13 05:24:35;;;;;;;2.25;1.63;;;;;;;8.16;62.83;93829.97;4242906;27;20522;-72
2024/02/13 05:26:37;;;;;;;2.35;1.85;;;;;;;8.26;62.56;93828.97;4238602;27;20074;-68
2024/02/13 05:28:41;;;;;;;3.17;1.90;;;;;;;8.27;62.26;93833.22;4235017;27;20056;-69
2024/02/13 05:30:43;;;;;;;2.60;1.83;;;;;;;8.14;62.10;93842.38;4225103;27;20400;-68
2024/02/13 05:32:44;;;;;;;5.43;2.25;;;;;;;8.17;62.02;93849.88;4242077;27;20139;-70
2024/02/13 05:34:47;;;;;;;4.10;1.77;;;;;;;8.12;62.59;93846.94;4235874;27;20052;-69
2024/02/13 05:36:49;;;;;;;4.13;2.30;;;;;;;8.12;61.90;93851.34;4243397;27;20122;-68
2024/02/13 05:38:50;;;;;;;3.25;2.15;;;;;;;8.12;61.99;93851.34;4220790;28;20079;-68
2024/02/13 05:40:52;;;;;;;4.10;2.53;;;;;;;8.10;62.59;93851.50;4237614;27;20043;-68
2024/02/13 05:42:54;;;;;;;3.22;2.17;;;;;;;8.18;62.19;93859.34;4238901;27;20043;-69
2024/02/13 05:44:57;;;;;;;2.47;2.00;;;;;;;8.19;62.18;93852.31;4225116;28;20039;-68
2024/02/13 05:46:59;;;;;;;6.50;2.05;;;;;;;8.27;61.86;93854.91;4242307;27;20050;-71
2024/02/13 05:49:01;;;;;;;2.88;2.20;;;;;;;8.37;61.40;93855.56;4242197;27;20047;-70
2024/02/13 05:51:04;;;;;;;5.00;2.17;;;;;;;8.38;61.81;93862.38;4242443;27;20379;-68
2024/02/13 05:53:06;;;;;;;;;;;;;;;8.41;61.34;93869.13;4220632;28;20040;-70
2024/02/13 05:55:08;;;;;;;4.65;2.47;;;;;;;8.34;61.43;93884.56;4237789;27;20338;-69
2024/02/13 05:57:10;;;;;;;3.85;1.85;;;;;;;8.32;61.49;93880.50;4239466;27;20206;-72
2024/02/13 05:59:12;;;;;;;3.75;2.30;;;;;;;8.30;62.13;93874.63;4241529;27;20057;-70
2024/02/13 06:01:13;;;;;;;5.32;2.30;;;;;;;8.34;62.10;93881.16;4234758;27;20039;-71
2024/02/13 06:03:15;;;;;;;4.90;2.17;;;;;;;8.46;61.19;93881.69;4243010;27;20047;-71
2024/02/13 06:05:17;;;;;;;2.58;1.98;;;;;;;8.44;61.29;93875.81;4242709;27;20051;-71
2024/02/13 06:07:19;;;;;;;3.42;2.00;;;;;;;8.48;61.16;93880.53;4241086;27;20047;-70
2024/02/13 06:09:24;;;;;;;3.15;2.20;;;;;;;8.45;60.89;93883.44;4242132;27;20494;-70
2024/02/13 06:11:26;;;;;;;3.88;2.15;;;;;;;8.53;60.84;93888.66;4242132;27;20093;-71
2024/02/13 06:13:33;;;;;;;3.03;1.98;;;;;;;8.49;60.84;93882.13;4236036;27;20040;-69
2024/02/13 06:15:36;;;;;;;5.38;2.33;;;;;;;8.44;60.82;93896.69;4230161;27;20048;-69
2024/02/13 06:17:40;;;;;;;5.03;2.47;;;;;;;8.49;60.59;93879.53;4242150;27;20039;-70
2024/02/13 06:19:44;;;;;;;4.80;2.20;;;;;;;8.46;60.89;93882.47;4242145;27;20043;-67
2024/02/13 06:21:46;;;;;;;;;;;;;;;8.47;61.16;93884.09;4236778;27;20379;-69
2024/02/13 06:23:49;;;;;;;11.02;2.45;;;;;;;8.47;60.71;93873.66;4241385;27;19942;-70
2024/02/13 06:25:51;;;;;;;4.60;2.08;;;;;;;8.42;60.97;93880.38;4232491;27;20271;-69
2024/02/13 06:27:53;;;;;;;4.00;2.60;;;;;;;8.47;60.82;93885.91;4241545;27;20082;-68
2024/02/13 06:29:55;;;;;;;3.10;2.00;;;;;;;8.40;60.94;93893.56;4241657;27;20053;-70
2024/02/13 06:31:58;;;;;;;2.30;1.90;;;;;;;8.38;60.90;93890.28;4211721;28;20051;-70
2024/02/13 06:34:00;;;;;;;4.57;2.38;;;;;;;8.56;61.02;93892.72;4231848;27;20061;-69
2024/02/13 06:36:03;;;;;;;3.90;2.25;;;;;;;8.64;60.35;93894.53;4238174;28;20419;-70
2024/02/13 06:38:06;;;;;;;4.22;2.35;;;;;;;8.69;60.37;93898.28;4243124;28;20425;-70
2024/02/13 06:40:08;;;;;;;2.70;2.37;;;;;;;8.74;60.57;93898.56;4236409;28;20615;-69
2024/02/13 06:42:10;;;;;;;2.95;2.13;;;;;;;8.59;60.02;93901.06;4238125;28;20437;-72
2024/02/13 06:44:13;;;;;;;2.87;2.07;;;;;;;8.52;60.51;93907.94;4236762;28;20051;-68
2024/02/13 06:46:15;;;;;;;2.70;1.85;;;;;;;8.43;60.85;93914.13;4224139;28;20047;-70
2024/02/13 06:48:17;;;;;;;2.95;2.10;;;;;;;8.33;61.43;93905.63;4239811;28;20128;-68
2024/02/13 06:50:19;;;;;;;3.08;2.42;;;;;;;8.34;61.66;93904.66;4233306;28;20066;-67
2024/02/13 06:52:22;;;;;;;4.10;2.33;;;;;;;8.44;61.45;93907.13;4240287;28;20115;-68
2024/02/13 06:54:24;;;;;;;4.20;2.63;;;;;;;8.46;61.61;93903.38;4239128;28;20047;-69
2024/02/13 06:56:27;;;;;;;3.10;2.40;;;;;;;8.36;61.67;93906.09;4239517;28;20487;-72
2024/02/13 06:58:29;;;;;;;4.10;2.60;;;;;;;8.32;62.16;93915.25;4239678;28;20050;-70
2024/02/13 07:00:32;;;;;;;5.95;2.53;;;;;;;8.35;61.91;93906.28;4236289;28;20055;-71
2024/02/13 07:02:35;;;;;;;3.97;3.30;;;;;;;8.48;61.58;93904.00;4242211;28;20039;-70
2024/02/13 07:04:37;;;;;;;4.75;3.58;;;;;;;8.53;61.76;93912.16;4242216;28;20499;-70
2024/02/13 07:06:40;;;;;;;5.28;3.50;;;;;;;8.61;62.19;93911.34;4240085;28;20493;-68
2024/02/13 07:09:01;;;;;;;3.38;2.85;;;;;;;8.44;61.40;93907.13;4241512;28;20475;-69
2024/02/13 07:11:04;;;;;;;4.05;3.45;;;;;;;8.51;62.23;93908.09;4242297;28;20047;-69
2024/02/13 07:13:05;;;;;;;10.73;3.30;;;;;;;8.60;61.35;93902.69;4241026;28;20051;-68
2024/02/13 07:15:08;;;;;;;3.90;3.05;;;;;;;8.66;61.87;93903.81;4240305;28;20412;-70
2024/02/13 07:17:10;;;;;;;7.97;3.20;;;;;;;8.77;61.57;93900.84;4206814;28;20134;-69
2024/02/13 07:19:12;;;;;;;4.35;2.70;;;;;;;8.78;61.82;93901.69;4242225;28;20050;-68
2024/02/13 07:21:15;;;;;;;3.25;2.85;;;;;;;8.87;61.04;93913.72;4219396;28;20044;-70
2024/02/13 07:23:17;;;;;;;3.53;2.50;;;;;;;8.90;60.65;93895.09;4236642;28;20051;-70
2024/02/13 07:25:18;;;;;;;3.67;2.88;;;;;;;8.93;61.20;93902.59;4235821;28;20086;-71
2024/02/13 07:27:20;;;;;;;4.90;3.28;;;;;;;8.73;61.05;93903.94;4230825;28;20059;-71
2024/02/13 07:29:22;;;;;;;6.03;3.40;;;;;;;8.50;61.99;93906.47;4233705;28;20051;-72
2024/02/13 07:31:25;;;;;;;4.50;3.03;;;;;;;8.51;62.30;93906.28;4219233;28;20488;-68
2024/02/13 07:33:28;;;;;;;3.60;2.58;;;;;;;8.59;61.86;93889.81;4237840;27;20050;-73
2024/02/13 07:35:30;;;;;;;5.05;3.35;;;;;;;8.64;62.39;93899.75;4243033;27;20138;-69
2024/02/13 07:37:32;;;;;;;3.88;3.35;;;;;;;8.69;62.57;93892.22;4244678;27;20120;-69
2024/02/13 07:39:34;;;;;;;3.55;2.67;;;;;;;8.73;62.09;93901.34;4242323;27;20070;-69
2024/02/13 07:41:37;;;;;;;3.28;2.63;;;;;;;8.80;61.86;93889.25;4236730;27;20047;-69
2024/02/13 07:43:39;;;;;;;2.95;2.20;;;;;;;8.86;61.64;93896.41;4239461;27;20054;-69
2024/02/13 07:45:41;;;;;;;3.67;2.28;;;;;;;8.74;62.54;93903.00;4241369;27;20158;-69
2024/02/13 07:47:43;;;;;;;3.75;2.10;;;;;;;8.79;62.35;93908.50;4245350;27;20063;-70
2024/02/13 07:49:45;;;;;;;2.25;1.80;;;;;;;8.63;61.91;93911.19;4245052;27;20050;-72
2024/02/13 07:51:48;;;;;;;3.42;2.65;;;;;;;8.65;63.62;93909.19;4241626;27;20050;-70
2024/02/13 07:53:50;;;;;;;3.05;2.38;;;;;;;8.59;63.76;93911.50;4232263;27;20151;-70
2024/02/13 07:55:52;;;;;;;4.68;2.45;;;;;;;8.54;63.46;93913.81;4243859;27;20039;-70
2024/02/13 07:57:54;;;;;;;5.53;2.97;;;;;;;8.63;64.14;93913.78;4244949;27;20039;-69
2024/02/13 07:59:57;;;;;;;3.03;2.72;;;;;;;8.69;63.63;93916.56;4244899;27;20053;-69
2024/02/13 08:01:59;;;;;;;3.20;2.43;;;;;;;8.76;63.38;93921.91;4243877;27;20623;-71
2024/02/13 08:04:01;;;;;;;2.90;2.45;;;;;;;8.72;63.64;93918.81;4223085;28;20571;-71
2024/02/13 08:06:04;;;;;;;3.95;2.90;;;;;;;8.85;63.17;93907.84;4237539;27;20047;-71
2024/02/13 08:08:10;;;;;;;3.03;2.70;;;;;;;8.77;63.32;93921.72;4242973;27;20073;-70
2024/02/13 08:10:13;;;;;;;5.03;3.70;;;;;;;8.87;63.75;93926.78;4242389;27;20122;-70
2024/02/13 08:12:15;;;;;;;5.28;2.85;;;;;;;8.85;63.60;93922.72;4242417;27;20644;-68
2024/02/13 08:14:17;;;;;;;5.22;2.90;;;;;;;8.88;63.39;93917.94;4242812;27;20062;-71
2024/02/13 08:16:22;;;;;;;3.00;2.50;;;;;;;8.85;62.76;93928.75;4222133;28;20409;-70
2024/02/13 08:18:25;;;;;;;3.95;2.80;;;;;;;8.90;62.79;93921.22;4243958;27;20095;-70
2024/02/13 08:20:28;;;;;;;4.22;2.40;;;;;;;8.73;62.95;93920.47;4244987;27;20137;-69
2024/02/13 08:22:30;;;;;;;3.20;2.88;;;;;;;8.69;63.59;93915.72;4242707;27;20134;-69
2024/02/13 08:24:32;;;;;;;3.40;2.72;;;;;;;8.66;63.81;93918.66;4244592;27;20507;-71
2024/02/13 08:26:34;;;;;;;5.00;3.15;;;;;;;8.73;63.80;93927.47;4245054;27;20133;-70
2024/02/13 08:28:37;;;;;;;3.22;2.72;;;;;;;8.72;63.30;93926.66;4238757;27;20043;-72
2024/02/13 08:30:39;;;;;;;3.70;2.97;;;;;;;8.73;63.50;93917.84;4240283;27;20384;-69
2024/02/13 08:32:42;;;;;;;4.25;3.00;;;;;;;8.69;63.84;93934.00;4243846;27;20419;-69
2024/02/13 08:34:44;;;;;;;3.45;2.65;;;;;;;8.66;63.89;93929.91;4244529;27;20051;-70
2024/02/13 08:36:48;;;;;;;3.90;2.80;;;;;;;8.78;63.88;93930.41;4240932;27;20436;-71
2024/02/13 08:38:52;;;;;;;7.43;4.00;;;;;;;8.75;63.90;93922.88;4236786;27;20043;-70
2024/02/13 08:40:56;;;;;;;3.85;2.53;;;;;;;8.69;63.78;93945.28;4236421;27;20063;-69
2024/02/13 08:42:58;;;;;;;3.42;2.80;;;;;;;8.68;63.14;93930.56;4239634;27;20065;-69
2024/02/13 08:45:01;;;;;;;3.30;2.70;;;;;;;8.70;63.08;93935.63;4239003;27;20122;-71
2024/02/13 08:47:04;;;;;;;4.55;2.25;;;;;;;8.75;62.67;93930.72;4225898;28;20141;-72
2024/02/13 08:49:06;;;;;;;3.92;2.50;;;;;;;8.70;62.77;93936.44;4233217;27;20048;-73
2024/02/13 08:51:09;;;;;;;3.17;2.65;;;;;;;8.68;62.90;93941.00;4242044;27;20515;-68
2024/02/13 08:53:11;;;;;;;2.85;2.55;;;;;;;8.72;62.72;93939.69;4225383;28;20055;-71
2024/02/13 08:55:13;;;;;;;3.40;3.00;;;;;;;8.78;62.55;93939.03;4234763;27;20051;-72
2024/02/13 08:57:15;;;;;;;5.15;2.80;;;;;;;8.78;61.88;93931.22;4229355;27;20086;-71
2024/02/13 08:59:18;;;;;;;3.55;2.65;;;;;;;8.82;62.43;93932.50;4234033;27;20402;-71
2024/02/13 09:01:21;;;;;;;3.60;2.65;;;;;;;8.84;62.51;93932.34;4235959;27;20526;-70
2024/02/13 09:03:23;;;;;;;4.65;2.70;;;;;;;8.96;62.06;93935.41;4243724;27;20104;-70
2024/02/13 09:05:25;;;;;;;4.97;2.83;;;;;;;9.09;61.48;93932.25;4243817;27;20051;-69
2024/02/13 09:07:28;;;;;;;3.55;2.65;;;;;;;9.12;61.41;93926.69;4219870;28;20044;-70
2024/02/13 09:09:32;;;;;;;3.75;2.60;;;;;;;9.15;61.23;93936.81;4241675;27;20122;-69
2024/02/13 09:11:35;;;;;;;2.90;2.38;;;;;;;9.06;61.27;93928.19;4224419;28;20043;-70
2024/02/13 09:13:38;;;;;;;3.58;2.70;;;;;;;9.16;60.94;93935.81;4243957;27;20478;-70
2024/02/13 09:15:40;;;;;;;2.80;2.30;;;;;;;9.08;60.68;93933.22;4243824;27;20059;-69
2024/02/13 09:17:43;;;;;;;6.22;3.97;;;;;;;9.08;60.89;93933.22;4241558;27;20571;-69
2024/02/13 09:19:45;;;;;;;10.18;4.78;;;;;;;8.80;61.31;93944.91;4235323;27;20092;-70
2024/02/13 09:21:48;;;;;;;4.03;2.60;;;;;;;8.65;61.93;93941.34;4243608;27;20051;-71
2024/02/13 09:23:50;;;;;;;3.55;2.78;;;;;;;8.71;61.66;93950.31;4243603;27;20421;-71
2024/02/13 09:25:52;;;;;;;5.18;2.95;;;;;;;8.77;61.03;93937.41;4229999;27;20087;-72
2024/02/13 09:27:54;;;;;;;3.90;2.88;;;;;;;8.67;61.56;93944.63;4233209;27;20039;-68
2024/02/13 09:29:56;;;;;;;4.57;3.33;;;;;;;8.54;62.11;93947.75;4243747;27;20049;-70
2024/02/13 09:31:58;;;;;;;3.00;2.53;;;;;;;8.51;62.65;93937.59;4231795;27;20126;-70
2024/02/13 09:34:00;;;;;;;6.15;3.97;;;;;;;8.57;62.42;93936.94;4242772;27;20051;-68
2024/02/13 09:36:05;;;;;;;6.22;3.90;;;;;;;8.76;62.41;93935.78;4238093;27;20502;-71
2024/02/13 09:38:07;;;;;;;4.07;3.20;;;;;;;8.90;61.49;93931.66;4215586;28;20135;-71
2024/02/13 09:40:13;;;;;;;5.60;2.85;;;;;;;8.82;61.07;93932.50;4241388;27;20050;-72
2024/02/13 09:42:16;;;;;;;4.30;2.90;;;;;;;8.75;60.68;93933.31;4230706;27;20051;-68
2024/02/13 09:44:18;;;;;;;4.43;2.65;;;;;;;8.77;61.13;93942.63;4231382;27;20039;-70
2024/02/13 09:46:24;;;;;;;4.05;3.15;;;;;;;8.86;61.11;93932.16;4242744;27;20108;-70
2024/02/13 09:48:26;;;;;;;3.88;2.42;;;;;;;8.97;60.23;93942.25;4217867;28;20154;-70
2024/02/13 09:50:33;;;;;;;2.90;2.30;;;;;;;9.00;59.84;93924.44;4220650;28;20048;-72